sensor_id;sensor_type;location;lat;lon;timestamp;P1;durP1;ratioP1;P2;durP2;ratioP2
51194;SDS011;37259;49.972;19.850;2023-06-26T00:00:35;9.9;;;5.7;;
51194;SDS011;37259;49.972;19.850;2023-06-26T00:01:35;9.9;;;5.7;;
51194;SDS011;37259;49.972;19.850;2023-06-26T00:02:35;9.9;;;5.7;;
51194;SDS011;37259;49.972;19.850;2023-06-26T00:03:35;9.9;;;5.7;;
51194;SDS011;37259;49.972;19.850;2023-06-26T00:04:35;9.9;;;5.7;;
51194;SDS011;37259;49.972;19.850;2023-06-26T00:05:35;9.9;;;5.7;;
51194;SDS011;37259;49.972;19.850;2023-06-26T00:06:35;9.9;;;5.7;;
51194;SDS011;37259;49.972;19.850;2023-06-26T00:07:35;9.9;;;5.7;;
51194;SDS011;37259;49.972;19.850;2023-06-26T00:08:35;9.9;;;5.7;;
51194;SDS011;37259;49.972;19.850;2023-06-26T00:09:35;9.9;;;5.7;;
51194;SDS011;37259;49.972;19.850;2023-06-26T00:10:35;9.9;;;5.7;;
51194;SDS011;37259;49.972;19.850;2023-06-26T00:11:35;9.9;;;5.7;;
51194;SDS011;37259;49.972;19.850;2023-06-26T00:12:35;9.9;;;5.7;;
51194;SDS011;37259;49.972;19.850;2023-06-26T00:13:35;9.9;;;5.7;;
51194;SDS011;37259;49.972;19.850;2023-06-26T00:14:35;9.9;;;5.7;;
51194;SDS011;37259;49.972;19.850;2023-06-26T00:15:35;9.9;;;5.7;;
51194;SDS011;37259;49.972;19.850;2023-06-26T00:16:35;9.9;;;5.7;;
51194;SDS011;37259;49.972;19.850;2023-06-26T00:17:37;9.9;;;5.7;;
51194;SDS011;37259;49.972;19.850;2023-06-26T00:18:35;9.9;;;5.7;;
51194;SDS011;37259;49.972;19.850;2023-06-26T00:19:35;9.9;;;5.7;;
51194;SDS011;37259;49.972;19.850;2023-06-26T00:20:35;9.9;;;5.7;;
51194;SDS011;37259;49.972;19.850;2023-06-26T00:21:35;9.9;;;5.7;;
51194;SDS011;37259;49.972;19.850;2023-06-26T00:22:35;9.9;;;5.7;;
51194;SDS011;37259;49.972;19.850;2023-06-26T00:23:35;9.9;;;5.7;;
51194;SDS011;37259;49.972;19.850;2023-06-26T00:24:35;9.9;;;5.7;;
51194;SDS011;37259;49.972;19.850;2023-06-26T00:25:35;9.9;;;5.7;;
51194;SDS011;37259;49.972;19.850;2023-06-26T00:26:35;9.9;;;5.7;;
51194;SDS011;37259;49.972;19.850;2023-06-26T00:27:35;9.7;;;5.4;;
51194;SDS011;37259;49.972;19.850;2023-06-26T00:28:35;9.7;;;5.4;;
51194;SDS011;37259;49.972;19.850;2023-06-26T00:29:35;9.7;;;5.4;;
51194;SDS011;37259;49.972;19.850;2023-06-26T00:30:35;9.7;;;5.4;;
51194;SDS011;37259;49.972;19.850;2023-06-26T00:31:35;9.7;;;5.4;;
51194;SDS011;37259;49.972;19.850;2023-06-26T00:32:35;9.7;;;5.4;;
51194;SDS011;37259;49.972;19.850;2023-06-26T00:33:35;9.7;;;5.4;;
51194;SDS011;37259;49.972;19.850;2023-06-26T00:34:35;9.7;;;5.4;;
51194;SDS011;37259;49.972;19.850;2023-06-26T00:35:35;9.7;;;5.4;;
51194;SDS011;37259;49.972;19.850;2023-06-26T00:36:35;9.7;;;5.4;;
51194;SDS011;37259;49.972;19.850;2023-06-26T00:37:35;9.7;;;5.4;;
51194;SDS011;37259;49.972;19.850;2023-06-26T00:38:35;9.7;;;5.4;;
51194;SDS011;37259;49.972;19.850;2023-06-26T00:39:35;9.7;;;5.4;;
51194;SDS011;37259;49.972;19.850;2023-06-26T00:40:35;9.7;;;5.4;;
51194;SDS011;37259;49.972;19.850;2023-06-26T00:41:35;9.7;;;5.4;;
51194;SDS011;37259;49.972;19.850;2023-06-26T00:42:35;9.7;;;5.4;;
51194;SDS011;37259;49.972;19.850;2023-06-26T00:43:35;9.7;;;5.4;;
51194;SDS011;37259;49.972;19.850;2023-06-26T00:44:35;9.7;;;5.4;;
51194;SDS011;37259;49.972;19.850;2023-06-26T00:45:35;9.7;;;5.4;;
51194;SDS011;37259;49.972;19.850;2023-06-26T00:46:35;9.7;;;5.4;;
51194;SDS011;37259;49.972;19.850;2023-06-26T00:47:35;9.7;;;5.4;;
51194;SDS011;37259;49.972;19.850;2023-06-26T00:48:35;9.7;;;5.4;;
51194;SDS011;37259;49.972;19.850;2023-06-26T00:49:35;9.7;;;5.4;;
51194;SDS011;37259;49.972;19.850;2023-06-26T00:50:35;9.7;;;5.4;;
51194;SDS011;37259;49.972;19.850;2023-06-26T00:51:35;9.7;;;5.4;;
51194;SDS011;37259;49.972;19.850;2023-06-26T00:52:35;9.7;;;5.4;;
51194;SDS011;37259;49.972;19.850;2023-06-26T00:53:35;9.7;;;5.4;;
51194;SDS011;37259;49.972;19.850;2023-06-26T00:54:35;9.7;;;5.4;;
51194;SDS011;37259;49.972;19.850;2023-06-26T00:55:35;9.7;;;5.4;;
51194;SDS011;37259;49.972;19.850;2023-06-26T00:56:35;9.7;;;5.4;;
51194;SDS011;37259;49.972;19.850;2023-06-26T00:57:35;9;;;5.9;;
51194;SDS011;37259;49.972;19.850;2023-06-26T00:58:35;9;;;5.9;;
51194;SDS011;37259;49.972;19.850;2023-06-26T00:59:35;9;;;5.9;;
51194;SDS011;37259;49.972;19.850;2023-06-26T01:00:35;9;;;5.9;;
51194;SDS011;37259;49.972;19.850;2023-06-26T01:01:35;9;;;5.9;;
51194;SDS011;37259;49.972;19.850;2023-06-26T01:02:35;9;;;5.9;;
51194;SDS011;37259;49.972;19.850;2023-06-26T01:03:35;9;;;5.9;;
51194;SDS011;37259;49.972;19.850;2023-06-26T01:04:35;9;;;5.9;;
51194;SDS011;37259;49.972;19.850;2023-06-26T01:05:35;9;;;5.9;;
51194;SDS011;37259;49.972;19.850;2023-06-26T01:06:35;9;;;5.9;;
51194;SDS011;37259;49.972;19.850;2023-06-26T01:07:35;9;;;5.9;;
51194;SDS011;37259;49.972;19.850;2023-06-26T01:08:35;9;;;5.9;;
51194;SDS011;37259;49.972;19.850;2023-06-26T01:09:35;9;;;5.9;;
51194;SDS011;37259;49.972;19.850;2023-06-26T01:10:35;9;;;5.9;;
51194;SDS011;37259;49.972;19.850;2023-06-26T01:11:35;9;;;5.9;;
51194;SDS011;37259;49.972;19.850;2023-06-26T01:12:35;9;;;5.9;;
51194;SDS011;37259;49.972;19.850;2023-06-26T01:13:35;9;;;5.9;;
51194;SDS011;37259;49.972;19.850;2023-06-26T01:14:35;9;;;5.9;;
51194;SDS011;37259;49.972;19.850;2023-06-26T01:15:35;9;;;5.9;;
51194;SDS011;37259;49.972;19.850;2023-06-26T01:16:35;9;;;5.9;;
51194;SDS011;37259;49.972;19.850;2023-06-26T01:17:36;9;;;5.9;;
51194;SDS011;37259;49.972;19.850;2023-06-26T01:18:35;9;;;5.9;;
51194;SDS011;37259;49.972;19.850;2023-06-26T01:19:35;9;;;5.9;;
51194;SDS011;37259;49.972;19.850;2023-06-26T01:20:35;9;;;5.9;;
51194;SDS011;37259;49.972;19.850;2023-06-26T01:21:35;9;;;5.9;;
51194;SDS011;37259;49.972;19.850;2023-06-26T01:22:37;9;;;5.9;;
51194;SDS011;37259;49.972;19.850;2023-06-26T01:23:35;9;;;5.9;;
51194;SDS011;37259;49.972;19.850;2023-06-26T01:24:35;9;;;5.9;;
51194;SDS011;37259;49.972;19.850;2023-06-26T01:25:35;9;;;5.9;;
51194;SDS011;37259;49.972;19.850;2023-06-26T01:26:35;9;;;5.9;;
51194;SDS011;37259;49.972;19.850;2023-06-26T01:27:35;8.4;;;6.3;;
51194;SDS011;37259;49.972;19.850;2023-06-26T01:28:35;8.4;;;6.3;;
51194;SDS011;37259;49.972;19.850;2023-06-26T01:29:35;8.4;;;6.3;;
51194;SDS011;37259;49.972;19.850;2023-06-26T01:30:37;8.4;;;6.3;;
51194;SDS011;37259;49.972;19.850;2023-06-26T01:31:35;8.4;;;6.3;;
51194;SDS011;37259;49.972;19.850;2023-06-26T01:32:35;8.4;;;6.3;;
51194;SDS011;37259;49.972;19.850;2023-06-26T01:33:35;8.4;;;6.3;;
51194;SDS011;37259;49.972;19.850;2023-06-26T01:34:35;8.4;;;6.3;;
51194;SDS011;37259;49.972;19.850;2023-06-26T01:35:35;8.4;;;6.3;;
51194;SDS011;37259;49.972;19.850;2023-06-26T01:36:35;8.4;;;6.3;;
51194;SDS011;37259;49.972;19.850;2023-06-26T01:37:35;8.4;;;6.3;;
51194;SDS011;37259;49.972;19.850;2023-06-26T01:38:35;8.4;;;6.3;;
51194;SDS011;37259;49.972;19.850;2023-06-26T01:39:35;8.4;;;6.3;;
51194;SDS011;37259;49.972;19.850;2023-06-26T01:40:35;8.4;;;6.3;;
51194;SDS011;37259;49.972;19.850;2023-06-26T01:41:35;8.4;;;6.3;;
51194;SDS011;37259;49.972;19.850;2023-06-26T01:42:35;8.4;;;6.3;;
51194;SDS011;37259;49.972;19.850;2023-06-26T01:43:35;8.4;;;6.3;;
51194;SDS011;37259;49.972;19.850;2023-06-26T01:44:35;8.4;;;6.3;;
51194;SDS011;37259;49.972;19.850;2023-06-26T01:45:35;8.4;;;6.3;;
51194;SDS011;37259;49.972;19.850;2023-06-26T01:46:36;8.4;;;6.3;;
51194;SDS011;37259;49.972;19.850;2023-06-26T01:47:35;8.4;;;6.3;;
51194;SDS011;37259;49.972;19.850;2023-06-26T01:48:37;8.4;;;6.3;;
51194;SDS011;37259;49.972;19.850;2023-06-26T01:49:38;8.4;;;6.3;;
51194;SDS011;37259;49.972;19.850;2023-06-26T01:50:35;8.4;;;6.3;;
51194;SDS011;37259;49.972;19.850;2023-06-26T01:51:35;8.4;;;6.3;;
51194;SDS011;37259;49.972;19.850;2023-06-26T01:52:35;8.4;;;6.3;;
51194;SDS011;37259;49.972;19.850;2023-06-26T01:53:36;8.4;;;6.3;;
51194;SDS011;37259;49.972;19.850;2023-06-26T01:54:36;8.4;;;6.3;;
51194;SDS011;37259;49.972;19.850;2023-06-26T01:55:36;8.4;;;6.3;;
51194;SDS011;37259;49.972;19.850;2023-06-26T01:56:35;8.4;;;6.3;;
51194;SDS011;37259;49.972;19.850;2023-06-26T01:57:35;9.6;;;6.3;;
51194;SDS011;37259;49.972;19.850;2023-06-26T01:58:35;9.6;;;6.3;;
51194;SDS011;37259;49.972;19.850;2023-06-26T01:59:35;9.6;;;6.3;;
51194;SDS011;37259;49.972;19.850;2023-06-26T02:00:35;9.6;;;6.3;;
51194;SDS011;37259;49.972;19.850;2023-06-26T02:01:35;9.6;;;6.3;;
51194;SDS011;37259;49.972;19.850;2023-06-26T02:02:35;9.6;;;6.3;;
51194;SDS011;37259;49.972;19.850;2023-06-26T02:03:35;9.6;;;6.3;;
51194;SDS011;37259;49.972;19.850;2023-06-26T02:04:35;9.6;;;6.3;;
51194;SDS011;37259;49.972;19.850;2023-06-26T02:05:35;9.6;;;6.3;;
51194;SDS011;37259;49.972;19.850;2023-06-26T02:06:35;9.6;;;6.3;;
51194;SDS011;37259;49.972;19.850;2023-06-26T02:07:35;9.6;;;6.3;;
51194;SDS011;37259;49.972;19.850;2023-06-26T02:08:35;9.6;;;6.3;;
51194;SDS011;37259;49.972;19.850;2023-06-26T02:09:35;9.6;;;6.3;;
51194;SDS011;37259;49.972;19.850;2023-06-26T02:10:35;9.6;;;6.3;;
51194;SDS011;37259;49.972;19.850;2023-06-26T02:11:35;9.6;;;6.3;;
51194;SDS011;37259;49.972;19.850;2023-06-26T02:12:35;9.6;;;6.3;;
51194;SDS011;37259;49.972;19.850;2023-06-26T02:13:35;9.6;;;6.3;;
51194;SDS011;37259;49.972;19.850;2023-06-26T02:14:35;9.6;;;6.3;;
51194;SDS011;37259;49.972;19.850;2023-06-26T02:15:35;9.6;;;6.3;;
51194;SDS011;37259;49.972;19.850;2023-06-26T02:16:35;9.6;;;6.3;;
51194;SDS011;37259;49.972;19.850;2023-06-26T02:17:35;9.6;;;6.3;;
51194;SDS011;37259;49.972;19.850;2023-06-26T02:18:35;9.6;;;6.3;;
51194;SDS011;37259;49.972;19.850;2023-06-26T02:19:35;9.6;;;6.3;;
51194;SDS011;37259;49.972;19.850;2023-06-26T02:20:35;9.6;;;6.3;;
51194;SDS011;37259;49.972;19.850;2023-06-26T02:21:35;9.6;;;6.3;;
51194;SDS011;37259;49.972;19.850;2023-06-26T02:22:35;9.6;;;6.3;;
51194;SDS011;37259;49.972;19.850;2023-06-26T02:23:35;9.6;;;6.3;;
51194;SDS011;37259;49.972;19.850;2023-06-26T02:24:35;9.6;;;6.3;;
51194;SDS011;37259;49.972;19.850;2023-06-26T02:25:35;9.6;;;6.3;;
51194;SDS011;37259;49.972;19.850;2023-06-26T02:26:35;9.6;;;6.3;;
51194;SDS011;37259;49.972;19.850;2023-06-26T02:27:35;10.4;;;6.2;;
51194;SDS011;37259;49.972;19.850;2023-06-26T02:28:35;10.4;;;6.2;;
51194;SDS011;37259;49.972;19.850;2023-06-26T02:29:35;10.4;;;6.2;;
51194;SDS011;37259;49.972;19.850;2023-06-26T02:30:35;10.4;;;6.2;;
51194;SDS011;37259;49.972;19.850;2023-06-26T02:31:35;10.4;;;6.2;;
51194;SDS011;37259;49.972;19.850;2023-06-26T02:32:35;10.4;;;6.2;;
51194;SDS011;37259;49.972;19.850;2023-06-26T02:33:35;10.4;;;6.2;;
51194;SDS011;37259;49.972;19.850;2023-06-26T02:34:35;10.4;;;6.2;;
51194;SDS011;37259;49.972;19.850;2023-06-26T02:35:35;10.4;;;6.2;;
51194;SDS011;37259;49.972;19.850;2023-06-26T02:36:35;10.4;;;6.2;;
51194;SDS011;37259;49.972;19.850;2023-06-26T02:37:35;10.4;;;6.2;;
51194;SDS011;37259;49.972;19.850;2023-06-26T02:38:35;10.4;;;6.2;;
51194;SDS011;37259;49.972;19.850;2023-06-26T02:39:35;10.4;;;6.2;;
51194;SDS011;37259;49.972;19.850;2023-06-26T02:40:35;10.4;;;6.2;;
51194;SDS011;37259;49.972;19.850;2023-06-26T02:41:35;10.4;;;6.2;;
51194;SDS011;37259;49.972;19.850;2023-06-26T02:42:35;10.4;;;6.2;;
51194;SDS011;37259;49.972;19.850;2023-06-26T02:43:35;10.4;;;6.2;;
51194;SDS011;37259;49.972;19.850;2023-06-26T02:44:35;10.4;;;6.2;;
51194;SDS011;37259;49.972;19.850;2023-06-26T02:45:35;10.4;;;6.2;;
51194;SDS011;37259;49.972;19.850;2023-06-26T02:46:35;10.4;;;6.2;;
51194;SDS011;37259;49.972;19.850;2023-06-26T02:47:36;10.4;;;6.2;;
51194;SDS011;37259;49.972;19.850;2023-06-26T02:48:35;10.4;;;6.2;;
51194;SDS011;37259;49.972;19.850;2023-06-26T02:49:35;10.4;;;6.2;;
51194;SDS011;37259;49.972;19.850;2023-06-26T02:50:35;10.4;;;6.2;;
51194;SDS011;37259;49.972;19.850;2023-06-26T02:51:35;10.4;;;6.2;;
51194;SDS011;37259;49.972;19.850;2023-06-26T02:52:35;10.4;;;6.2;;
51194;SDS011;37259;49.972;19.850;2023-06-26T02:53:35;10.4;;;6.2;;
51194;SDS011;37259;49.972;19.850;2023-06-26T02:54:35;10.4;;;6.2;;
51194;SDS011;37259;49.972;19.850;2023-06-26T02:55:35;10.4;;;6.2;;
51194;SDS011;37259;49.972;19.850;2023-06-26T02:56:35;10.4;;;6.2;;
51194;SDS011;37259;49.972;19.850;2023-06-26T02:57:35;10.3;;;6.2;;
51194;SDS011;37259;49.972;19.850;2023-06-26T02:58:35;10.3;;;6.2;;
51194;SDS011;37259;49.972;19.850;2023-06-26T02:59:35;10.3;;;6.2;;
51194;SDS011;37259;49.972;19.850;2023-06-26T03:00:35;10.3;;;6.2;;
51194;SDS011;37259;49.972;19.850;2023-06-26T03:01:35;10.3;;;6.2;;
51194;SDS011;37259;49.972;19.850;2023-06-26T03:02:35;10.3;;;6.2;;
51194;SDS011;37259;49.972;19.850;2023-06-26T03:03:35;10.3;;;6.2;;
51194;SDS011;37259;49.972;19.850;2023-06-26T03:04:35;10.3;;;6.2;;
51194;SDS011;37259;49.972;19.850;2023-06-26T03:05:35;10.3;;;6.2;;
51194;SDS011;37259;49.972;19.850;2023-06-26T03:06:35;10.3;;;6.2;;
51194;SDS011;37259;49.972;19.850;2023-06-26T03:07:35;10.3;;;6.2;;
51194;SDS011;37259;49.972;19.850;2023-06-26T03:08:36;10.3;;;6.2;;
51194;SDS011;37259;49.972;19.850;2023-06-26T03:09:35;10.3;;;6.2;;
51194;SDS011;37259;49.972;19.850;2023-06-26T03:10:35;10.3;;;6.2;;
51194;SDS011;37259;49.972;19.850;2023-06-26T03:11:35;10.3;;;6.2;;
51194;SDS011;37259;49.972;19.850;2023-06-26T03:12:35;10.3;;;6.2;;
51194;SDS011;37259;49.972;19.850;2023-06-26T03:13:35;10.3;;;6.2;;
51194;SDS011;37259;49.972;19.850;2023-06-26T03:14:35;10.3;;;6.2;;
51194;SDS011;37259;49.972;19.850;2023-06-26T03:15:35;10.3;;;6.2;;
51194;SDS011;37259;49.972;19.850;2023-06-26T03:16:35;10.3;;;6.2;;
51194;SDS011;37259;49.972;19.850;2023-06-26T03:17:35;10.3;;;6.2;;
51194;SDS011;37259;49.972;19.850;2023-06-26T03:18:35;10.3;;;6.2;;
51194;SDS011;37259;49.972;19.850;2023-06-26T03:19:35;10.3;;;6.2;;
51194;SDS011;37259;49.972;19.850;2023-06-26T03:20:35;10.3;;;6.2;;
51194;SDS011;37259;49.972;19.850;2023-06-26T03:21:35;10.3;;;6.2;;
51194;SDS011;37259;49.972;19.850;2023-06-26T03:22:35;10.3;;;6.2;;
51194;SDS011;37259;49.972;19.850;2023-06-26T03:23:35;10.3;;;6.2;;
51194;SDS011;37259;49.972;19.850;2023-06-26T03:24:35;10.3;;;6.2;;
51194;SDS011;37259;49.972;19.850;2023-06-26T03:25:35;10.3;;;6.2;;
51194;SDS011;37259;49.972;19.850;2023-06-26T03:26:35;10.3;;;6.2;;
51194;SDS011;37259;49.972;19.850;2023-06-26T03:27:35;8.2;;;5.4;;
51194;SDS011;37259;49.972;19.850;2023-06-26T03:28:35;8.2;;;5.4;;
51194;SDS011;37259;49.972;19.850;2023-06-26T03:29:35;8.2;;;5.4;;
51194;SDS011;37259;49.972;19.850;2023-06-26T03:30:35;8.2;;;5.4;;
51194;SDS011;37259;49.972;19.850;2023-06-26T03:31:35;8.2;;;5.4;;
51194;SDS011;37259;49.972;19.850;2023-06-26T03:32:35;8.2;;;5.4;;
51194;SDS011;37259;49.972;19.850;2023-06-26T03:33:35;8.2;;;5.4;;
51194;SDS011;37259;49.972;19.850;2023-06-26T03:34:35;8.2;;;5.4;;
51194;SDS011;37259;49.972;19.850;2023-06-26T03:35:35;8.2;;;5.4;;
51194;SDS011;37259;49.972;19.850;2023-06-26T03:36:35;8.2;;;5.4;;
51194;SDS011;37259;49.972;19.850;2023-06-26T03:37:35;8.2;;;5.4;;
51194;SDS011;37259;49.972;19.850;2023-06-26T03:38:35;8.2;;;5.4;;
51194;SDS011;37259;49.972;19.850;2023-06-26T03:39:35;8.2;;;5.4;;
51194;SDS011;37259;49.972;19.850;2023-06-26T03:40:35;8.2;;;5.4;;
51194;SDS011;37259;49.972;19.850;2023-06-26T03:41:35;8.2;;;5.4;;
51194;SDS011;37259;49.972;19.850;2023-06-26T03:42:35;8.2;;;5.4;;
51194;SDS011;37259;49.972;19.850;2023-06-26T03:43:35;8.2;;;5.4;;
51194;SDS011;37259;49.972;19.850;2023-06-26T03:44:35;8.2;;;5.4;;
51194;SDS011;37259;49.972;19.850;2023-06-26T03:45:35;8.2;;;5.4;;
51194;SDS011;37259;49.972;19.850;2023-06-26T03:46:35;8.2;;;5.4;;
51194;SDS011;37259;49.972;19.850;2023-06-26T03:47:35;8.2;;;5.4;;
51194;SDS011;37259;49.972;19.850;2023-06-26T03:48:35;8.2;;;5.4;;
51194;SDS011;37259;49.972;19.850;2023-06-26T03:49:35;8.2;;;5.4;;
51194;SDS011;37259;49.972;19.850;2023-06-26T03:50:35;8.2;;;5.4;;
51194;SDS011;37259;49.972;19.850;2023-06-26T03:51:35;8.2;;;5.4;;
51194;SDS011;37259;49.972;19.850;2023-06-26T03:52:35;8.2;;;5.4;;
51194;SDS011;37259;49.972;19.850;2023-06-26T03:53:35;8.2;;;5.4;;
51194;SDS011;37259;49.972;19.850;2023-06-26T03:54:35;8.2;;;5.4;;
51194;SDS011;37259;49.972;19.850;2023-06-26T03:55:35;8.2;;;5.4;;
51194;SDS011;37259;49.972;19.850;2023-06-26T03:56:35;8.2;;;5.4;;
51194;SDS011;37259;49.972;19.850;2023-06-26T03:57:35;9;;;6;;
51194;SDS011;37259;49.972;19.850;2023-06-26T03:58:35;9;;;6;;
51194;SDS011;37259;49.972;19.850;2023-06-26T03:59:35;9;;;6;;
51194;SDS011;37259;49.972;19.850;2023-06-26T04:00:35;9;;;6;;
51194;SDS011;37259;49.972;19.850;2023-06-26T04:01:35;9;;;6;;
51194;SDS011;37259;49.972;19.850;2023-06-26T04:02:35;9;;;6;;
51194;SDS011;37259;49.972;19.850;2023-06-26T04:03:35;9;;;6;;
51194;SDS011;37259;49.972;19.850;2023-06-26T04:04:35;9;;;6;;
51194;SDS011;37259;49.972;19.850;2023-06-26T04:05:35;9;;;6;;
51194;SDS011;37259;49.972;19.850;2023-06-26T04:06:35;9;;;6;;
51194;SDS011;37259;49.972;19.850;2023-06-26T04:07:36;9;;;6;;
51194;SDS011;37259;49.972;19.850;2023-06-26T04:08:35;9;;;6;;
51194;SDS011;37259;49.972;19.850;2023-06-26T04:09:35;9;;;6;;
51194;SDS011;37259;49.972;19.850;2023-06-26T04:10:35;9;;;6;;
51194;SDS011;37259;49.972;19.850;2023-06-26T04:11:35;9;;;6;;
51194;SDS011;37259;49.972;19.850;2023-06-26T04:12:35;9;;;6;;
51194;SDS011;37259;49.972;19.850;2023-06-26T04:13:35;9;;;6;;
51194;SDS011;37259;49.972;19.850;2023-06-26T04:14:35;9;;;6;;
51194;SDS011;37259;49.972;19.850;2023-06-26T04:15:35;9;;;6;;
51194;SDS011;37259;49.972;19.850;2023-06-26T04:16:35;9;;;6;;
51194;SDS011;37259;49.972;19.850;2023-06-26T04:17:35;9;;;6;;
51194;SDS011;37259;49.972;19.850;2023-06-26T04:18:35;9;;;6;;
51194;SDS011;37259;49.972;19.850;2023-06-26T04:19:35;9;;;6;;
51194;SDS011;37259;49.972;19.850;2023-06-26T04:20:38;9;;;6;;
51194;SDS011;37259;49.972;19.850;2023-06-26T04:21:35;9;;;6;;
51194;SDS011;37259;49.972;19.850;2023-06-26T04:22:35;9;;;6;;
51194;SDS011;37259;49.972;19.850;2023-06-26T04:23:35;9;;;6;;
51194;SDS011;37259;49.972;19.850;2023-06-26T04:24:35;9;;;6;;
51194;SDS011;37259;49.972;19.850;2023-06-26T04:25:35;9;;;6;;
51194;SDS011;37259;49.972;19.850;2023-06-26T04:26:35;9;;;6;;
51194;SDS011;37259;49.972;19.850;2023-06-26T04:27:35;10.2;;;6.5;;
51194;SDS011;37259;49.972;19.850;2023-06-26T04:28:35;10.2;;;6.5;;
51194;SDS011;37259;49.972;19.850;2023-06-26T04:29:35;10.2;;;6.5;;
51194;SDS011;37259;49.972;19.850;2023-06-26T04:30:35;10.2;;;6.5;;
51194;SDS011;37259;49.972;19.850;2023-06-26T04:31:35;10.2;;;6.5;;
51194;SDS011;37259;49.972;19.850;2023-06-26T04:32:35;10.2;;;6.5;;
51194;SDS011;37259;49.972;19.850;2023-06-26T04:33:35;10.2;;;6.5;;
51194;SDS011;37259;49.972;19.850;2023-06-26T04:34:35;10.2;;;6.5;;
51194;SDS011;37259;49.972;19.850;2023-06-26T04:35:35;10.2;;;6.5;;
51194;SDS011;37259;49.972;19.850;2023-06-26T04:36:35;10.2;;;6.5;;
51194;SDS011;37259;49.972;19.850;2023-06-26T04:37:35;10.2;;;6.5;;
51194;SDS011;37259;49.972;19.850;2023-06-26T04:38:35;10.2;;;6.5;;
51194;SDS011;37259;49.972;19.850;2023-06-26T04:39:35;10.2;;;6.5;;
51194;SDS011;37259;49.972;19.850;2023-06-26T04:40:35;10.2;;;6.5;;
51194;SDS011;37259;49.972;19.850;2023-06-26T04:41:35;10.2;;;6.5;;
51194;SDS011;37259;49.972;19.850;2023-06-26T04:42:35;10.2;;;6.5;;
51194;SDS011;37259;49.972;19.850;2023-06-26T04:43:35;10.2;;;6.5;;
51194;SDS011;37259;49.972;19.850;2023-06-26T04:44:35;10.2;;;6.5;;
51194;SDS011;37259;49.972;19.850;2023-06-26T04:45:35;10.2;;;6.5;;
51194;SDS011;37259;49.972;19.850;2023-06-26T04:46:35;10.2;;;6.5;;
51194;SDS011;37259;49.972;19.850;2023-06-26T04:47:35;10.2;;;6.5;;
51194;SDS011;37259;49.972;19.850;2023-06-26T04:48:35;10.2;;;6.5;;
51194;SDS011;37259;49.972;19.850;2023-06-26T04:49:35;10.2;;;6.5;;
51194;SDS011;37259;49.972;19.850;2023-06-26T04:50:35;10.2;;;6.5;;
51194;SDS011;37259;49.972;19.850;2023-06-26T04:51:35;10.2;;;6.5;;
51194;SDS011;37259;49.972;19.850;2023-06-26T04:52:35;10.2;;;6.5;;
51194;SDS011;37259;49.972;19.850;2023-06-26T04:53:35;10.2;;;6.5;;
51194;SDS011;37259;49.972;19.850;2023-06-26T04:54:35;10.2;;;6.5;;
51194;SDS011;37259;49.972;19.850;2023-06-26T04:55:35;10.2;;;6.5;;
51194;SDS011;37259;49.972;19.850;2023-06-26T04:56:35;10.2;;;6.5;;
51194;SDS011;37259;49.972;19.850;2023-06-26T04:57:35;10.1;;;6.4;;
51194;SDS011;37259;49.972;19.850;2023-06-26T04:58:35;10.1;;;6.4;;
51194;SDS011;37259;49.972;19.850;2023-06-26T04:59:35;10.1;;;6.4;;
51194;SDS011;37259;49.972;19.850;2023-06-26T05:00:35;10.1;;;6.4;;
51194;SDS011;37259;49.972;19.850;2023-06-26T05:01:35;10.1;;;6.4;;
51194;SDS011;37259;49.972;19.850;2023-06-26T05:02:35;10.1;;;6.4;;
51194;SDS011;37259;49.972;19.850;2023-06-26T05:03:35;10.1;;;6.4;;
51194;SDS011;37259;49.972;19.850;2023-06-26T05:04:35;10.1;;;6.4;;
51194;SDS011;37259;49.972;19.850;2023-06-26T05:05:35;10.1;;;6.4;;
51194;SDS011;37259;49.972;19.850;2023-06-26T05:06:35;10.1;;;6.4;;
51194;SDS011;37259;49.972;19.850;2023-06-26T05:07:35;10.1;;;6.4;;
51194;SDS011;37259;49.972;19.850;2023-06-26T05:08:35;10.1;;;6.4;;
51194;SDS011;37259;49.972;19.850;2023-06-26T05:09:35;10.1;;;6.4;;
51194;SDS011;37259;49.972;19.850;2023-06-26T05:10:35;10.1;;;6.4;;
51194;SDS011;37259;49.972;19.850;2023-06-26T05:11:35;10.1;;;6.4;;
51194;SDS011;37259;49.972;19.850;2023-06-26T05:12:35;10.1;;;6.4;;
51194;SDS011;37259;49.972;19.850;2023-06-26T05:13:35;10.1;;;6.4;;
51194;SDS011;37259;49.972;19.850;2023-06-26T05:14:35;10.1;;;6.4;;
51194;SDS011;37259;49.972;19.850;2023-06-26T05:15:35;10.1;;;6.4;;
51194;SDS011;37259;49.972;19.850;2023-06-26T05:16:35;10.1;;;6.4;;
51194;SDS011;37259;49.972;19.850;2023-06-26T05:17:35;10.1;;;6.4;;
51194;SDS011;37259;49.972;19.850;2023-06-26T05:18:35;10.1;;;6.4;;
51194;SDS011;37259;49.972;19.850;2023-06-26T05:19:35;10.1;;;6.4;;
51194;SDS011;37259;49.972;19.850;2023-06-26T05:20:35;10.1;;;6.4;;
51194;SDS011;37259;49.972;19.850;2023-06-26T05:21:35;10.1;;;6.4;;
51194;SDS011;37259;49.972;19.850;2023-06-26T05:22:35;10.1;;;6.4;;
51194;SDS011;37259;49.972;19.850;2023-06-26T05:23:35;10.1;;;6.4;;
51194;SDS011;37259;49.972;19.850;2023-06-26T05:24:35;10.1;;;6.4;;
51194;SDS011;37259;49.972;19.850;2023-06-26T05:25:35;10.1;;;6.4;;
51194;SDS011;37259;49.972;19.850;2023-06-26T05:26:35;10.1;;;6.4;;
51194;SDS011;37259;49.972;19.850;2023-06-26T05:27:35;14.2;;;8.1;;
51194;SDS011;37259;49.972;19.850;2023-06-26T05:28:35;14.2;;;8.1;;
51194;SDS011;37259;49.972;19.850;2023-06-26T05:29:35;14.2;;;8.1;;
51194;SDS011;37259;49.972;19.850;2023-06-26T05:30:35;14.2;;;8.1;;
51194;SDS011;37259;49.972;19.850;2023-06-26T05:31:35;14.2;;;8.1;;
51194;SDS011;37259;49.972;19.850;2023-06-26T05:32:35;14.2;;;8.1;;
51194;SDS011;37259;49.972;19.850;2023-06-26T05:33:35;14.2;;;8.1;;
51194;SDS011;37259;49.972;19.850;2023-06-26T05:34:35;14.2;;;8.1;;
51194;SDS011;37259;49.972;19.850;2023-06-26T05:35:35;14.2;;;8.1;;
51194;SDS011;37259;49.972;19.850;2023-06-26T05:36:35;14.2;;;8.1;;
51194;SDS011;37259;49.972;19.850;2023-06-26T05:37:35;14.2;;;8.1;;
51194;SDS011;37259;49.972;19.850;2023-06-26T05:38:35;14.2;;;8.1;;
51194;SDS011;37259;49.972;19.850;2023-06-26T05:39:35;14.2;;;8.1;;
51194;SDS011;37259;49.972;19.850;2023-06-26T05:40:35;14.2;;;8.1;;
51194;SDS011;37259;49.972;19.850;2023-06-26T05:41:35;14.2;;;8.1;;
51194;SDS011;37259;49.972;19.850;2023-06-26T05:42:35;14.2;;;8.1;;
51194;SDS011;37259;49.972;19.850;2023-06-26T05:43:35;14.2;;;8.1;;
51194;SDS011;37259;49.972;19.850;2023-06-26T05:44:35;14.2;;;8.1;;
51194;SDS011;37259;49.972;19.850;2023-06-26T05:45:35;14.2;;;8.1;;
51194;SDS011;37259;49.972;19.850;2023-06-26T05:46:35;14.2;;;8.1;;
51194;SDS011;37259;49.972;19.850;2023-06-26T05:47:35;14.2;;;8.1;;
51194;SDS011;37259;49.972;19.850;2023-06-26T05:48:35;14.2;;;8.1;;
51194;SDS011;37259;49.972;19.850;2023-06-26T05:49:35;14.2;;;8.1;;
51194;SDS011;37259;49.972;19.850;2023-06-26T05:50:35;14.2;;;8.1;;
51194;SDS011;37259;49.972;19.850;2023-06-26T05:51:35;14.2;;;8.1;;
51194;SDS011;37259;49.972;19.850;2023-06-26T05:52:35;14.2;;;8.1;;
51194;SDS011;37259;49.972;19.850;2023-06-26T05:53:35;14.2;;;8.1;;
51194;SDS011;37259;49.972;19.850;2023-06-26T05:54:35;14.2;;;8.1;;
51194;SDS011;37259;49.972;19.850;2023-06-26T05:55:35;14.2;;;8.1;;
51194;SDS011;37259;49.972;19.850;2023-06-26T05:56:35;14.2;;;8.1;;
51194;SDS011;37259;49.972;19.850;2023-06-26T05:57:35;12.3;;;8.6;;
51194;SDS011;37259;49.972;19.850;2023-06-26T05:58:35;12.3;;;8.6;;
51194;SDS011;37259;49.972;19.850;2023-06-26T05:59:35;12.3;;;8.6;;
51194;SDS011;37259;49.972;19.850;2023-06-26T06:00:35;12.3;;;8.6;;
51194;SDS011;37259;49.972;19.850;2023-06-26T06:01:35;12.3;;;8.6;;
51194;SDS011;37259;49.972;19.850;2023-06-26T06:02:35;12.3;;;8.6;;
51194;SDS011;37259;49.972;19.850;2023-06-26T06:03:35;12.3;;;8.6;;
51194;SDS011;37259;49.972;19.850;2023-06-26T06:04:35;12.3;;;8.6;;
51194;SDS011;37259;49.972;19.850;2023-06-26T06:05:35;12.3;;;8.6;;
51194;SDS011;37259;49.972;19.850;2023-06-26T06:06:35;12.3;;;8.6;;
51194;SDS011;37259;49.972;19.850;2023-06-26T06:07:35;12.3;;;8.6;;